This is the latest recevied weather packets stored in our database for station/object GW1492. If no packets are shown the sender has not sent any weather packets the latest 10 day(s).
| Time | Temp. | Humidity | Pressure | Rain* | Wind** | Luminosity | Snow |
|---|---|---|---|---|---|---|---|
| 1777185022 | 12.22° C | 95% | 1014.2 hPa | 0 mm | - | - | - |
| 1777184672 | 12.22° C | 95% | 1013.5 hPa | 0 mm | - | - | - |
| 1777183947 | 12.22° C | 95% | 1013.8 hPa | 0 mm | - | - | - |
| 1777182525 | 12.22° C | 95% | 1014.2 hPa | 0 mm | - | - | - |
| 1777181801 | 12.22° C | 95% | 1013.8 hPa | 0 mm | - | - | - |
| 1777180333 | 12.78° C | 95% | 1014.2 hPa | 0 mm | - | - | - |
| 1777179652 | 12.78° C | 95% | 1014.2 hPa | 0 mm | - | - | - |
| 1777175664 | 12.78° C | 95% | 1014.2 hPa | 0 mm | - | - | - |
| 1777174570 | 12.78° C | 95% | 1014.2 hPa | 0 mm | - | - | - |
| 1777170649 | 13.33° C | 94% | 1014.2 hPa | 0 mm | - | - | - |
| 1777169539 | 13.33° C | 94% | 1014.2 hPa | 0 mm | - | - | - |
| 1777169191 | 13.89° C | 94% | 1014.2 hPa | 0 mm | - | - | - |
| 1777167746 | 13.89° C | 94% | 1014.2 hPa | 0 mm | - | - | - |
| 1777165943 | 13.89° C | 93% | 1013.8 hPa | 0 mm | - | - | - |
| 1777162340 | 15.56° C | 91% | 1013.5 hPa | 0 mm | - | - | - |
| 1777161994 | 15.56° C | 90% | 1013.2 hPa | 0 mm | - | - | - |
| 1777161617 | 16.11° C | 90% | 1013.2 hPa | 0 mm | - | - | - |
| 1777160547 | 16.67° C | 87% | 1013.2 hPa | 0 mm | - | - | - |
| 1777160188 | 16.67° C | 86% | 1013.2 hPa | 0 mm | - | - | - |
| 1777158743 | 16.67° C | 87% | 1012.8 hPa | 0 mm | - | - | - |
| 1777157679 | 17.22° C | 86% | 1012.8 hPa | 0 mm | - | - | - |
| 1777150815 | 16.67° C | 89% | 1012.8 hPa | 0 mm | - | - | - |
| 1777149388 | 16.67° C | 89% | 1013.2 hPa | 0 mm | - | - | - |
| 1777149020 | 16.67° C | 89% | 1012.8 hPa | 0 mm | - | - | - |
| 1777148655 | 16.67° C | 89% | 1013.2 hPa | 0 mm | - | - | - |
* Rain since midnight (hover to see other rain measurements)
** Current wind speed in m/s (hover to see current wind gust speed)